createdAt,value
2018-06-14T00:01:02.460Z,14.93
2018-06-14T00:03:05.553Z,16.50
2018-06-14T00:05:08.761Z,11.50
2018-06-14T00:07:11.836Z,13.20
2018-06-14T00:09:14.992Z,24.93
2018-06-14T00:11:18.068Z,18.67
2018-06-14T00:13:21.163Z,15.80
2018-06-14T00:15:24.239Z,22.63
2018-06-14T00:17:27.360Z,16.70
2018-06-14T00:19:30.424Z,17.37
2018-06-14T00:21:33.520Z,14.10
2018-06-14T00:23:36.610Z,20.43
2018-06-14T00:25:39.691Z,24.47
2018-06-14T00:27:42.776Z,15.53
2018-06-14T00:29:45.892Z,18.17
2018-06-14T00:31:48.975Z,19.97
2018-06-14T00:33:52.211Z,13.23
2018-06-14T00:35:55.308Z,14.60
2018-06-14T00:37:58.407Z,18.93
2018-06-14T00:40:01.488Z,22.07
2018-06-14T00:42:04.891Z,13.57
2018-06-14T00:44:08.048Z,14.10
2018-06-14T00:46:11.130Z,16.50
2018-06-14T00:48:14.253Z,23.23
2018-06-14T00:50:17.352Z,15.13
2018-06-14T00:52:20.529Z,20.23
2018-06-14T00:54:23.633Z,18.20
2018-06-14T00:56:26.740Z,17.67
2018-06-14T00:58:29.837Z,14.13
2018-06-14T01:00:32.968Z,19.93
2018-06-14T01:02:36.067Z,20.00
2018-06-14T01:04:39.169Z,16.43
2018-06-14T01:06:42.860Z,16.37
2018-06-14T01:08:45.952Z,16.77
2018-06-14T01:10:49.050Z,10.43
2018-06-14T01:12:52.132Z,17.90
2018-06-14T01:14:55.220Z,20.57
2018-06-14T01:16:58.087Z,19.17
2018-06-14T01:19:01.196Z,19.30
2018-06-14T01:21:04.288Z,14.87
2018-06-14T01:23:07.372Z,27.50
2018-06-14T01:25:10.488Z,16.30
2018-06-14T01:27:13.636Z,19.33
2018-06-14T01:29:16.725Z,16.37
2018-06-14T01:31:19.803Z,16.97
2018-06-14T01:33:22.904Z,14.67
2018-06-14T01:35:26.065Z,14.30
2018-06-14T01:37:40.726Z,18.60
2018-06-14T01:39:43.816Z,18.40
2018-06-14T01:41:46.904Z,18.80
2018-06-14T01:43:49.987Z,21.17
2018-06-14T01:45:53.087Z,19.33
2018-06-14T01:47:56.167Z,25.13
2018-06-14T01:49:59.876Z,27.00
2018-06-14T01:52:02.960Z,25.70
2018-06-14T01:54:06.072Z,22.80
2018-06-14T01:56:09.174Z,21.20
2018-06-14T01:58:12.280Z,18.10
2018-06-14T02:00:15.364Z,28.13
2018-06-14T02:02:18.475Z,23.40
2018-06-14T02:04:21.576Z,32.40
2018-06-14T02:06:24.663Z,25.73
2018-06-14T02:08:27.759Z,25.37
2018-06-14T02:10:30.866Z,25.33
2018-06-14T02:12:33.968Z,25.50
2018-06-14T02:14:37.074Z,19.83
2018-06-14T02:16:40.159Z,26.13
2018-06-14T02:18:43.248Z,28.80
2018-06-14T02:20:46.331Z,27.83
2018-06-14T02:22:49.415Z,30.60
2018-06-14T02:24:52.501Z,36.73
2018-06-14T02:26:55.599Z,40.37
2018-06-14T02:28:58.688Z,37.90
2018-06-14T02:31:01.793Z,36.03
2018-06-14T02:33:05.026Z,30.00
2018-06-14T02:35:08.122Z,33.27
2018-06-14T02:37:11.207Z,36.30
2018-06-14T02:39:14.320Z,33.50
2018-06-14T02:41:17.414Z,32.53
2018-06-14T02:43:20.736Z,40.83
2018-06-14T02:45:23.840Z,46.20
2018-06-14T02:47:26.926Z,31.83
2018-06-14T02:49:30.022Z,40.97
2018-06-14T02:51:33.104Z,34.53
2018-06-14T02:53:36.196Z,38.47
2018-06-14T02:55:39.296Z,34.60
2018-06-14T02:57:42.391Z,38.03
2018-06-14T02:59:45.504Z,39.30
2018-06-14T03:01:48.572Z,48.43
2018-06-14T03:03:51.736Z,37.07
2018-06-14T03:05:54.826Z,38.43
2018-06-14T03:07:57.911Z,37.30
2018-06-14T03:10:01.432Z,37.80
2018-06-14T03:12:04.532Z,34.60
2018-06-14T03:14:07.608Z,33.43
2018-06-14T03:16:10.705Z,35.20
2018-06-14T03:18:13.800Z,29.30
2018-06-14T03:20:21.105Z,36.00
2018-06-14T03:22:25.267Z,43.63
2018-06-14T03:24:28.344Z,34.50
2018-06-14T03:26:31.492Z,28.70
2018-06-14T03:28:34.592Z,28.10
2018-06-14T03:30:37.768Z,32.93
2018-06-14T03:32:40.853Z,29.30
2018-06-14T03:34:43.939Z,42.00
2018-06-14T03:36:47.036Z,24.80
2018-06-14T03:38:50.143Z,26.77
2018-06-14T03:40:53.344Z,26.70
2018-06-14T03:42:56.333Z,21.60
2018-06-14T03:44:59.445Z,21.87
2018-06-14T03:47:02.996Z,21.63
2018-06-14T03:49:06.124Z,27.80
2018-06-14T03:51:10.195Z,21.23
2018-06-14T03:53:13.316Z,24.67
2018-06-14T03:55:16.416Z,26.37
2018-06-14T03:57:20.071Z,22.40
2018-06-14T03:59:23.176Z,21.40
2018-06-14T04:01:26.272Z,29.23
2018-06-14T04:03:29.392Z,25.07
2018-06-14T04:05:32.484Z,39.17
2018-06-14T04:07:35.598Z,22.83
2018-06-14T04:09:38.713Z,28.13
2018-06-14T04:11:41.828Z,24.23
2018-06-14T04:13:44.944Z,26.87
2018-06-14T04:15:48.069Z,30.53
2018-06-14T04:17:59.142Z,24.20
2018-06-14T04:20:02.356Z,19.63
2018-06-14T04:22:05.500Z,19.73
2018-06-14T04:24:08.451Z,29.03
2018-06-14T04:26:11.576Z,24.40
2018-06-14T04:28:14.680Z,18.50
2018-06-14T04:30:17.787Z,24.77
2018-06-14T04:32:20.904Z,25.80
2018-06-14T04:34:25.083Z,20.53
2018-06-14T04:36:29.205Z,19.50
2018-06-14T04:38:32.321Z,32.97
2018-06-14T04:40:35.434Z,32.00
2018-06-14T04:42:39.436Z,19.90
2018-06-14T04:44:42.553Z,25.80
2018-06-14T04:46:45.655Z,33.73
2018-06-14T04:48:48.772Z,27.40
2018-06-14T04:50:51.876Z,19.83
2018-06-14T04:52:55.025Z,23.00
2018-06-14T04:54:58.148Z,19.03
2018-06-14T04:57:01.266Z,26.03
2018-06-14T04:59:04.739Z,23.03
2018-06-14T05:01:08.578Z,19.37
2018-06-14T05:03:11.771Z,21.43
2018-06-14T05:05:14.885Z,24.93
2018-06-14T05:07:17.987Z,25.23
2018-06-14T05:09:21.096Z,20.10
2018-06-14T05:11:24.293Z,17.77
2018-06-14T05:13:27.487Z,17.10
2018-06-14T05:15:30.592Z,24.57
2018-06-14T05:17:33.708Z,15.07
2018-06-14T05:19:36.652Z,20.07
2018-06-14T05:21:39.753Z,15.57
2018-06-14T05:23:42.884Z,27.50
2018-06-14T05:25:46.308Z,17.07
2018-06-14T05:27:49.400Z,14.23
2018-06-14T05:29:52.649Z,17.00
2018-06-14T05:31:55.739Z,19.13
2018-06-14T05:33:58.854Z,21.73
2018-06-14T05:36:02.029Z,17.00
2018-06-14T05:38:05.197Z,17.80
2018-06-14T05:40:08.263Z,19.87
2018-06-14T05:42:11.197Z,16.27
2018-06-14T05:44:14.316Z,11.47
2018-06-14T05:46:17.416Z,17.37
2018-06-14T05:48:20.445Z,15.53
2018-06-14T05:50:24.170Z,17.57
2018-06-14T05:52:27.334Z,17.53
2018-06-14T05:54:30.455Z,25.10
2018-06-14T05:56:33.561Z,29.90
2018-06-14T05:58:36.672Z,13.87
2018-06-14T06:00:39.804Z,15.50
2018-06-14T06:02:42.897Z,12.77
2018-06-14T06:04:46.046Z,18.30
2018-06-14T06:06:49.155Z,22.67
2018-06-14T06:08:52.293Z,18.90
2018-06-14T06:10:55.418Z,13.23
2018-06-14T06:12:58.532Z,14.90
2018-06-14T06:15:01.482Z,12.80
2018-06-14T06:17:04.723Z,14.80
2018-06-14T06:19:08.056Z,14.57
2018-06-14T06:21:11.244Z,14.60
2018-06-14T06:23:14.399Z,12.77
2018-06-14T06:25:17.538Z,22.70
2018-06-14T06:27:20.658Z,19.60
2018-06-14T06:29:23.759Z,15.03
2018-06-14T06:31:26.884Z,27.47
2018-06-14T06:33:30.138Z,22.60
2018-06-14T06:35:33.124Z,17.30
2018-06-14T06:37:36.228Z,20.70
2018-06-14T06:39:39.335Z,14.37
2018-06-14T06:41:42.456Z,25.87
2018-06-14T06:43:45.541Z,22.07
2018-06-14T06:45:48.640Z,10.67
2018-06-14T06:47:51.719Z,13.67
2018-06-14T06:49:54.808Z,12.27
2018-06-14T06:51:57.896Z,28.37
2018-06-14T06:54:00.997Z,31.83
2018-06-14T06:56:04.121Z,24.00
2018-06-14T06:58:07.238Z,12.37
2018-06-14T07:00:10.347Z,8.93
2018-06-14T07:02:13.624Z,14.33
2018-06-14T07:04:16.708Z,14.37
2018-06-14T07:06:19.960Z,21.87
2018-06-14T07:08:22.908Z,24.57
2018-06-14T07:10:26.013Z,17.37
2018-06-14T07:12:29.187Z,18.90
2018-06-14T07:14:32.290Z,35.17
2018-06-14T07:16:35.668Z,18.00
2018-06-14T07:18:38.780Z,17.70
2018-06-14T07:20:41.888Z,20.27
2018-06-14T07:22:44.988Z,20.37
2018-06-14T07:24:48.077Z,28.00
2018-06-14T07:26:51.165Z,25.03
2018-06-14T07:28:54.285Z,13.73
2018-06-14T07:30:57.384Z,38.13
2018-06-14T07:33:00.474Z,24.33
2018-06-14T07:35:03.572Z,19.07
2018-06-14T07:37:06.651Z,19.87
2018-06-14T07:39:11.324Z,21.53
2018-06-14T07:41:14.444Z,14.57
2018-06-14T07:43:17.692Z,19.73
2018-06-14T07:45:20.806Z,21.07
2018-06-14T07:47:23.912Z,21.43
2018-06-14T07:49:27.028Z,13.63
2018-06-14T07:51:30.460Z,18.60
2018-06-14T07:53:33.584Z,13.40
2018-06-14T07:55:36.917Z,19.00
2018-06-14T07:57:40.033Z,14.80
2018-06-14T07:59:43.148Z,39.50
2018-06-14T08:01:46.251Z,24.67
2018-06-14T08:03:49.507Z,21.60
2018-06-14T08:05:52.619Z,47.00
2018-06-14T08:07:55.724Z,33.17
2018-06-14T08:09:58.826Z,27.07
2018-06-14T08:12:01.940Z,62.73
2018-06-14T08:14:05.044Z,49.40
2018-06-14T08:16:08.279Z,45.97
2018-06-14T08:18:11.433Z,24.23
2018-06-14T08:20:14.540Z,23.43
2018-06-14T08:22:17.664Z,38.73
2018-06-14T08:24:20.831Z,21.10
2018-06-14T08:26:24.560Z,32.13
2018-06-14T08:28:27.679Z,25.80
2018-06-14T08:30:31.013Z,44.93
2018-06-14T08:32:34.179Z,19.73
2018-06-14T08:34:37.281Z,16.13
2018-06-14T08:36:40.396Z,24.47
2018-06-14T08:38:43.583Z,10.53
2018-06-14T08:40:46.693Z,21.57
2018-06-14T08:42:49.808Z,14.90
2018-06-14T08:44:53.046Z,28.73
2018-06-14T08:46:56.088Z,16.27
2018-06-14T08:48:59.187Z,25.50
2018-06-14T08:51:02.299Z,21.03
2018-06-14T08:53:05.388Z,11.53
2018-06-14T08:55:08.492Z,29.10
2018-06-14T08:57:11.596Z,16.60
2018-06-14T08:59:14.683Z,17.37
2018-06-14T09:01:17.809Z,16.43
2018-06-14T09:03:20.860Z,10.80
2018-06-14T09:05:23.936Z,19.40
2018-06-14T09:07:27.040Z,21.50
2018-06-14T09:09:30.136Z,15.80
2018-06-14T09:11:33.226Z,19.00
2018-06-14T09:13:36.325Z,23.90
2018-06-14T09:15:39.417Z,12.50
2018-06-14T09:17:42.508Z,12.53
2018-06-14T09:19:45.602Z,29.30
2018-06-14T09:21:48.684Z,62.90
2018-06-14T09:23:51.781Z,28.87
2018-06-14T09:25:54.864Z,16.33
2018-06-14T09:27:57.939Z,13.77
2018-06-14T09:30:01.089Z,16.53
2018-06-14T09:32:04.129Z,15.90
2018-06-14T09:34:07.312Z,38.77
2018-06-14T09:36:10.395Z,22.57
2018-06-14T09:38:13.481Z,22.87
2018-06-14T09:40:16.568Z,15.10
2018-06-14T09:42:19.663Z,20.23
2018-06-14T09:44:22.780Z,46.47
2018-06-14T09:46:25.864Z,24.30
2018-06-14T09:48:28.952Z,13.00
2018-06-14T09:50:32.047Z,15.40
2018-06-14T09:52:35.148Z,15.17
2018-06-14T09:54:38.239Z,22.43
2018-06-14T09:56:41.375Z,23.60
2018-06-14T09:58:44.499Z,30.47
2018-06-14T10:00:47.585Z,9.67
2018-06-14T10:02:50.543Z,9.33
2018-06-14T10:04:53.633Z,15.60
2018-06-14T10:06:56.732Z,19.63
2018-06-14T10:08:59.596Z,7.13
2018-06-14T10:11:02.701Z,27.53
2018-06-14T10:13:05.781Z,32.17
2018-06-14T10:15:08.679Z,12.10
2018-06-14T10:17:11.776Z,52.97
2018-06-14T10:19:14.868Z,10.53
2018-06-14T10:21:17.968Z,21.23
2018-06-14T10:23:21.068Z,21.20
2018-06-14T10:25:24.168Z,21.67
2018-06-14T10:27:27.249Z,12.13
2018-06-14T10:29:30.340Z,46.33
2018-06-14T10:31:33.455Z,66.20
2018-06-14T10:33:37.308Z,23.63
2018-06-14T10:35:40.413Z,15.13
2018-06-14T10:37:43.493Z,18.70
2018-06-14T10:39:47.120Z,9.30
2018-06-14T10:41:50.212Z,11.53
2018-06-14T10:43:53.341Z,10.17
2018-06-14T10:45:56.484Z,11.47
2018-06-14T10:47:59.616Z,15.27
2018-06-14T10:50:03.404Z,10.73
2018-06-14T10:52:06.484Z,9.87
2018-06-14T10:54:09.604Z,35.63
2018-06-14T10:56:12.729Z,19.60
2018-06-14T10:58:15.825Z,15.17
2018-06-14T11:00:18.972Z,19.47
2018-06-14T11:02:22.108Z,47.30
2018-06-14T11:04:25.208Z,38.67
2018-06-14T11:06:28.315Z,17.70
2018-06-14T11:08:31.432Z,21.67
2018-06-14T11:10:34.538Z,14.03
2018-06-14T11:12:37.653Z,11.57
2018-06-14T11:14:40.748Z,7.27
2018-06-14T11:16:43.853Z,11.13
2018-06-14T11:18:46.993Z,8.30
2018-06-14T11:20:50.168Z,9.47
2018-06-14T11:22:53.679Z,6.27
2018-06-14T11:24:59.333Z,11.07
2018-06-14T11:27:02.452Z,59.97
2018-06-14T11:29:05.609Z,27.37
2018-06-14T11:31:08.900Z,13.30
2018-06-14T11:33:12.033Z,42.90
2018-06-14T11:35:15.148Z,45.97
2018-06-14T11:37:18.259Z,24.23
2018-06-14T11:39:21.374Z,33.17
2018-06-14T11:41:24.520Z,8.90
2018-06-14T11:43:27.714Z,26.23
2018-06-14T11:45:30.784Z,9.80
2018-06-14T11:47:33.862Z,12.03
2018-06-14T11:49:36.935Z,52.80
2018-06-14T11:51:40.025Z,14.77
2018-06-14T11:53:43.116Z,17.93
2018-06-14T11:55:46.190Z,12.10
2018-06-14T11:57:49.274Z,10.57
2018-06-14T11:59:53.416Z,12.80
2018-06-14T12:01:56.500Z,9.80
2018-06-14T12:03:59.795Z,10.17
2018-06-14T12:06:02.945Z,4.80
2018-06-14T12:08:06.048Z,5.03
2018-06-14T12:10:10.089Z,6.63
2018-06-14T12:12:13.457Z,8.77
2018-06-14T12:14:16.770Z,5.93
2018-06-14T12:16:19.852Z,5.93
2018-06-14T12:18:22.921Z,15.40
2018-06-14T12:20:25.997Z,8.53
2018-06-14T12:22:29.076Z,41.90
2018-06-14T12:24:32.283Z,16.17
2018-06-14T12:26:35.375Z,11.43
2018-06-14T12:28:38.447Z,26.77
2018-06-14T12:30:41.520Z,10.13
2018-06-14T12:32:44.600Z,5.80
2018-06-14T12:34:47.676Z,11.73
2018-06-14T12:36:50.752Z,10.30
2018-06-14T12:38:53.860Z,14.27
2018-06-14T12:40:57.024Z,7.27
2018-06-14T12:43:00.107Z,12.43
2018-06-14T12:45:03.277Z,23.00
2018-06-14T12:47:06.391Z,23.03
2018-06-14T12:49:09.495Z,17.70
2018-06-14T12:51:12.609Z,33.47
2018-06-14T12:53:15.748Z,110.33
2018-06-14T12:55:18.857Z,13.27
2018-06-14T12:57:21.951Z,8.87
2018-06-14T12:59:25.061Z,10.80
2018-06-14T13:01:28.228Z,5.93
2018-06-14T13:03:31.352Z,10.73
2018-06-14T13:05:34.574Z,6.40
2018-06-14T13:07:37.660Z,21.77
2018-06-14T13:09:40.772Z,8.47
2018-06-14T13:11:43.868Z,9.60
2018-06-14T13:13:46.960Z,5.97
2018-06-14T13:15:50.063Z,9.60
2018-06-14T13:17:53.165Z,5.57
2018-06-14T13:19:56.278Z,9.53
2018-06-14T13:22:00.581Z,11.70
2018-06-14T13:24:03.684Z,18.17
2018-06-14T13:26:06.792Z,14.80
2018-06-14T13:28:10.016Z,10.20
2018-06-14T13:30:12.927Z,6.87
2018-06-14T13:32:16.103Z,7.53
2018-06-14T13:34:19.184Z,18.40
2018-06-14T13:36:22.288Z,54.10
2018-06-14T13:38:25.383Z,50.77
2018-06-14T13:40:28.476Z,8.10
2018-06-14T13:42:31.592Z,16.13
2018-06-14T13:44:34.696Z,11.23
2018-06-14T13:46:39.867Z,37.30
2018-06-14T13:48:42.992Z,12.30
2018-06-14T13:50:46.083Z,17.20
2018-06-14T13:52:49.820Z,32.87
2018-06-14T13:54:53.042Z,5.37
2018-06-14T13:56:56.390Z,15.17
2018-06-14T13:58:59.519Z,19.10
2018-06-14T14:01:02.747Z,12.20
2018-06-14T14:03:05.797Z,7.83
2018-06-14T14:05:08.909Z,10.33
2018-06-14T14:07:12.026Z,13.03
2018-06-14T14:09:15.233Z,10.17
2018-06-14T14:11:18.337Z,19.30
2018-06-14T14:13:21.451Z,5.07
2018-06-14T14:15:24.372Z,7.47
2018-06-14T14:17:27.494Z,14.13
2018-06-14T14:19:30.638Z,4.30
2018-06-14T14:21:33.744Z,14.73
2018-06-14T14:23:36.860Z,11.87
2018-06-14T14:25:40.076Z,4.97
2018-06-14T14:27:43.181Z,20.87
2018-06-14T14:29:46.284Z,4.93
2018-06-14T14:31:49.385Z,8.73
2018-06-14T14:33:52.511Z,7.70
2018-06-14T14:35:55.437Z,7.80
2018-06-14T14:37:58.728Z,15.80
2018-06-14T14:40:01.838Z,7.60
2018-06-14T14:42:04.712Z,6.83
2018-06-14T14:44:08.045Z,28.33
2018-06-14T14:46:11.140Z,5.90
2018-06-14T14:48:14.240Z,5.73
2018-06-14T14:50:17.373Z,16.50
2018-06-14T14:52:20.464Z,8.73
2018-06-14T14:54:23.584Z,7.73
2018-06-14T14:56:26.737Z,5.93
2018-06-14T14:58:29.684Z,7.97
2018-06-14T15:00:32.812Z,13.50
2018-06-14T15:02:36.660Z,10.53
2018-06-14T15:04:39.809Z,8.30
2018-06-14T15:06:43.002Z,21.50
2018-06-14T15:08:46.101Z,22.50
2018-06-14T15:10:49.208Z,10.17
2018-06-14T15:12:52.332Z,15.33
2018-06-14T15:14:55.426Z,16.03
2018-06-14T15:16:58.541Z,12.60
2018-06-14T15:19:01.649Z,21.07
2018-06-14T15:21:04.769Z,13.10
2018-06-14T15:23:07.887Z,12.23
2018-06-14T15:25:10.988Z,17.60
2018-06-14T15:27:14.083Z,21.33
2018-06-14T15:29:17.196Z,11.27
2018-06-14T15:31:20.321Z,16.63
2018-06-14T15:33:23.412Z,13.60
2018-06-14T15:35:26.540Z,20.10
2018-06-14T15:37:29.648Z,19.10
2018-06-14T15:39:33.004Z,24.83
2018-06-14T15:41:36.131Z,23.30
2018-06-14T15:43:39.347Z,21.73
2018-06-14T15:45:42.801Z,17.93
2018-06-14T15:47:45.950Z,24.83
2018-06-14T15:49:49.084Z,19.47
2018-06-14T15:51:52.200Z,18.00
2018-06-14T15:53:55.352Z,17.40
2018-06-14T15:56:49.697Z,11.83
2018-06-14T15:58:52.809Z,18.03
2018-06-14T16:00:56.184Z,17.73
2018-06-14T16:02:59.293Z,29.67
2018-06-14T16:05:02.411Z,18.30
2018-06-14T16:07:05.628Z,17.80
2018-06-14T16:09:09.947Z,17.20
2018-06-14T16:11:13.070Z,39.83
2018-06-14T16:13:16.214Z,17.17
2018-06-14T16:15:19.353Z,18.30
2018-06-14T16:17:22.472Z,18.53
2018-06-14T16:19:25.684Z,23.30
2018-06-14T16:21:28.836Z,25.57
2018-06-14T16:23:32.048Z,16.97
2018-06-14T16:25:35.163Z,21.03
2018-06-14T16:27:38.288Z,21.40
2018-06-14T16:29:41.411Z,25.47
2018-06-14T16:31:44.596Z,19.47
2018-06-14T16:33:47.697Z,18.13
2018-06-14T16:35:50.821Z,20.10
2018-06-14T16:37:53.968Z,17.53
2018-06-14T16:39:57.080Z,21.30
2018-06-14T16:42:00.204Z,22.33
2018-06-14T16:44:03.292Z,22.03
2018-06-14T16:46:06.657Z,24.43
2018-06-14T16:48:09.693Z,20.43
2018-06-14T16:50:12.789Z,21.47
2018-06-14T16:52:15.884Z,20.63
2018-06-14T16:54:19.247Z,20.07
2018-06-14T16:56:22.345Z,24.90
2018-06-14T16:58:25.432Z,23.23
2018-06-14T17:00:28.535Z,23.30
2018-06-14T17:02:31.616Z,25.57
2018-06-14T17:04:34.720Z,17.63
2018-06-14T17:06:37.972Z,24.40
2018-06-14T17:08:41.054Z,18.77
2018-06-14T17:10:44.208Z,21.20
2018-06-14T17:12:47.232Z,21.00
2018-06-14T17:14:50.324Z,25.67
2018-06-14T17:16:53.458Z,29.80
2018-06-14T17:18:56.530Z,24.00
2018-06-14T17:20:59.616Z,34.97
2018-06-14T17:23:02.772Z,37.73
2018-06-14T17:25:05.840Z,24.23
2018-06-14T17:27:08.925Z,22.67
2018-06-14T17:29:12.058Z,21.77
2018-06-14T17:31:15.120Z,25.33
2018-06-14T17:33:18.331Z,27.20
2018-06-14T17:35:21.383Z,21.50
2018-06-14T17:37:24.464Z,18.93
2018-06-14T17:39:27.940Z,15.93
2018-06-14T17:41:31.109Z,21.80
2018-06-14T17:43:34.180Z,24.53
2018-06-14T17:45:37.271Z,24.07
2018-06-14T17:47:40.401Z,21.00
2018-06-14T17:49:43.448Z,23.73
2018-06-14T17:51:46.552Z,18.47
2018-06-14T17:53:50.181Z,23.07
2018-06-14T17:55:53.284Z,17.00
2018-06-14T17:57:56.369Z,19.63
2018-06-14T18:00:00.059Z,19.83
2018-06-14T18:02:03.172Z,21.80
2018-06-14T18:04:06.391Z,26.37
2018-06-14T18:06:09.495Z,23.50
2018-06-14T18:08:12.608Z,26.37
2018-06-14T18:10:15.748Z,19.80
2018-06-14T18:12:18.828Z,21.60
2018-06-14T18:14:21.903Z,21.47
2018-06-14T18:16:25.054Z,33.97
2018-06-14T18:18:28.547Z,16.63
2018-06-14T18:20:31.696Z,31.40
2018-06-14T18:22:34.869Z,23.70
2018-06-14T18:24:37.947Z,22.47
2018-06-14T18:26:41.139Z,17.40
2018-06-14T18:28:44.220Z,23.97
2018-06-14T18:30:47.321Z,29.57
2018-06-14T18:32:50.438Z,17.73
2018-06-14T18:34:53.521Z,20.60
2018-06-14T18:36:56.456Z,18.50
2018-06-14T18:38:59.567Z,18.80
2018-06-14T18:41:02.648Z,19.30
2018-06-14T18:43:05.734Z,20.80
2018-06-14T18:45:08.854Z,24.53
2018-06-14T18:47:11.923Z,20.70
2018-06-14T18:49:15.013Z,28.83
2018-06-14T18:51:18.116Z,19.07
2018-06-14T18:53:21.220Z,17.67
2018-06-14T18:55:24.396Z,17.07
2018-06-14T18:57:27.600Z,18.73
2018-06-14T18:59:30.773Z,19.90
2018-06-14T19:01:33.868Z,23.17
2018-06-14T19:03:36.960Z,21.77
2018-06-14T19:05:40.048Z,16.50
2018-06-14T19:07:43.136Z,20.70
2018-06-14T19:09:46.407Z,29.63
2018-06-14T19:11:49.573Z,32.00
2018-06-14T19:13:52.735Z,17.90
2018-06-14T19:15:55.816Z,29.73
2018-06-14T19:17:58.932Z,18.13
2018-06-14T19:20:02.029Z,21.27
2018-06-14T19:22:05.199Z,23.50
2018-06-14T19:24:08.282Z,23.17
2018-06-14T19:26:11.490Z,31.30
2018-06-14T19:28:14.607Z,26.23
2018-06-14T19:30:17.845Z,22.87
2018-06-14T19:32:20.936Z,31.53
2018-06-14T19:34:24.032Z,28.03
2018-06-14T19:36:27.184Z,29.13
2018-06-14T19:38:30.410Z,27.37
2018-06-14T19:40:33.512Z,33.33
2018-06-14T19:42:36.624Z,26.33
2018-06-14T19:44:39.743Z,30.37
2018-06-14T19:46:42.860Z,30.20
2018-06-14T19:48:45.976Z,32.93
2018-06-14T19:50:49.117Z,38.80
2018-06-14T19:52:52.232Z,30.40
2018-06-14T19:54:55.388Z,29.27
2018-06-14T19:56:58.492Z,30.70
2018-06-14T19:59:01.620Z,24.57
2018-06-14T20:01:04.812Z,25.33
2018-06-14T20:03:07.883Z,35.67
2018-06-14T20:05:11.008Z,27.97
2018-06-14T20:07:14.123Z,26.87
2018-06-14T20:09:17.255Z,28.60
2018-06-14T20:11:20.376Z,28.53
2018-06-14T20:13:23.485Z,34.70
2018-06-14T20:15:26.660Z,30.30
2018-06-14T20:17:29.828Z,32.33
2018-06-14T20:19:32.972Z,29.70
2018-06-14T20:21:36.096Z,46.00
2018-06-14T20:23:39.222Z,39.00
2018-06-14T20:25:42.380Z,29.93
2018-06-14T20:27:45.497Z,28.77
2018-06-14T20:29:48.620Z,29.37
2018-06-14T20:31:51.747Z,32.33
2018-06-14T20:33:54.954Z,34.80
2018-06-14T20:35:58.140Z,43.37
2018-06-14T20:38:01.293Z,37.07
2018-06-14T20:40:04.411Z,52.90
2018-06-14T20:42:08.422Z,35.70
2018-06-14T20:44:11.450Z,39.80
2018-06-14T20:46:14.539Z,38.50
2018-06-14T20:48:17.726Z,44.47
2018-06-14T20:50:20.820Z,42.20
2018-06-14T20:52:23.918Z,38.27
2018-06-14T20:54:27.112Z,41.27
2018-06-14T20:56:30.212Z,45.17
2018-06-14T20:58:33.292Z,47.20
2018-06-14T21:00:36.423Z,41.27
2018-06-14T21:02:39.528Z,43.30
2018-06-14T21:04:42.604Z,47.73
2018-06-14T21:06:45.680Z,50.43
2018-06-14T21:08:48.755Z,42.40
2018-06-14T21:10:51.695Z,45.30
2018-06-14T21:12:54.888Z,61.37
2018-06-14T21:14:57.992Z,60.47
2018-06-14T21:17:01.074Z,55.87
2018-06-14T21:19:04.198Z,44.87
2018-06-14T21:21:07.308Z,57.83
2018-06-14T21:23:10.396Z,59.13
2018-06-14T21:25:13.591Z,55.43
2018-06-14T21:27:16.741Z,64.03
2018-06-14T21:29:20.435Z,51.60
2018-06-14T21:31:23.512Z,70.73
2018-06-14T21:33:26.588Z,66.00
2018-06-14T21:35:29.671Z,58.60
2018-06-14T21:37:32.760Z,51.57
2018-06-14T21:39:35.865Z,53.13
2018-06-14T21:41:38.968Z,52.47
2018-06-14T21:43:42.065Z,47.90
2018-06-14T21:45:45.152Z,45.70
2018-06-14T21:47:48.228Z,40.87
2018-06-14T21:49:51.316Z,48.47
2018-06-14T21:51:54.396Z,45.03
2018-06-14T21:53:57.560Z,45.83
2018-06-14T21:56:00.661Z,45.57
2018-06-14T21:58:03.732Z,56.57
2018-06-14T22:00:07.360Z,41.40
2018-06-14T22:02:10.457Z,55.57
2018-06-14T22:04:13.541Z,46.10
2018-06-14T22:06:16.620Z,41.07
2018-06-14T22:08:19.701Z,40.80
2018-06-14T22:10:22.789Z,40.77
2018-06-14T22:12:25.896Z,41.47
2018-06-14T22:14:28.977Z,38.90
2018-06-14T22:16:32.908Z,40.53
2018-06-14T22:18:36.014Z,39.70
2018-06-14T22:20:39.137Z,45.13
2018-06-14T22:22:42.224Z,41.50
2018-06-14T22:24:45.320Z,39.63
2018-06-14T22:26:48.404Z,46.47
2018-06-14T22:28:51.480Z,43.67
2018-06-14T22:30:54.563Z,51.67
2018-06-14T22:33:09.224Z,42.47
2018-06-14T22:35:20.655Z,44.90
2018-06-14T22:37:23.745Z,56.87
2018-06-14T22:39:26.816Z,39.87
2018-06-14T22:41:29.909Z,43.30
2018-06-14T22:43:33.004Z,47.27
2018-06-14T22:45:36.112Z,40.47
2018-06-14T22:47:39.265Z,42.73
2018-06-14T22:49:42.372Z,50.77
2018-06-14T22:52:11.492Z,59.27
2018-06-14T22:54:14.596Z,55.27
2018-06-14T22:56:17.693Z,63.03
2018-06-14T22:58:20.804Z,56.73
2018-06-14T23:00:37.952Z,54.07
2018-06-14T23:02:41.068Z,59.70
2018-06-14T23:04:44.165Z,62.10
2018-06-14T23:06:47.407Z,54.40
2018-06-14T23:08:50.704Z,56.40
2018-06-14T23:11:05.180Z,59.23
2018-06-14T23:13:09.475Z,62.57
2018-06-14T23:15:12.956Z,52.10
2018-06-14T23:17:16.060Z,51.90
2018-06-14T23:19:19.169Z,56.17
2018-06-14T23:21:22.299Z,71.23
2018-06-14T23:23:25.410Z,65.73
2018-06-14T23:25:29.196Z,57.20
2018-06-14T23:27:32.336Z,62.80
2018-06-14T23:29:35.436Z,57.00
2018-06-14T23:31:38.548Z,52.43
2018-06-14T23:33:41.660Z,48.07
2018-06-14T23:35:44.760Z,55.27
2018-06-14T23:37:48.084Z,48.30
2018-06-14T23:39:51.225Z,57.43
2018-06-14T23:41:54.326Z,46.30
2018-06-14T23:43:57.440Z,46.90
2018-06-14T23:46:00.508Z,48.20
2018-06-14T23:48:04.498Z,44.97
2018-06-14T23:50:07.556Z,47.93
2018-06-14T23:52:10.656Z,57.17
2018-06-14T23:54:13.721Z,63.50
2018-06-14T23:56:16.878Z,48.30
2018-06-14T23:58:19.944Z,55.33
